createdAt,value
2018-04-12T00:00:25.552Z,45.30
2018-04-12T00:01:25.694Z,44.60
2018-04-12T00:02:25.929Z,44.70
2018-04-12T00:03:25.997Z,45.60
2018-04-12T00:04:26.134Z,45.60
2018-04-12T00:05:26.276Z,47.10
2018-04-12T00:06:26.605Z,46.10
2018-04-12T00:07:26.487Z,45.40
2018-04-12T00:08:26.836Z,46.30
2018-04-12T00:09:26.994Z,46.60
2018-04-12T00:10:26.899Z,46.20
2018-04-12T00:11:27.039Z,47.70
2018-04-12T00:12:27.174Z,46.60
2018-04-12T00:13:27.312Z,47.90
2018-04-12T00:14:27.451Z,47.60
2018-04-12T00:15:27.646Z,50.30
2018-04-12T00:16:27.713Z,48.00
2018-04-12T00:17:28.086Z,49.60
2018-04-12T00:18:27.967Z,50.00
2018-04-12T00:19:28.108Z,49.20
2018-04-12T00:20:28.248Z,48.70
2018-04-12T00:21:28.385Z,49.50
2018-04-12T00:22:28.525Z,48.40
2018-04-12T00:23:28.666Z,50.00
2018-04-12T00:24:28.799Z,49.50
2018-04-12T00:25:28.937Z,50.60
2018-04-12T00:26:29.079Z,49.10
2018-04-12T00:27:29.587Z,50.70
2018-04-12T00:28:29.367Z,49.70
2018-04-12T00:29:29.505Z,50.40
2018-04-12T00:30:29.650Z,49.00
2018-04-12T00:31:29.783Z,50.30
2018-04-12T00:32:29.928Z,51.10
2018-04-12T00:33:30.070Z,50.10
2018-04-12T00:34:30.208Z,50.90
2018-04-12T00:35:30.450Z,51.20
2018-04-12T00:36:30.465Z,50.80
2018-04-12T00:37:31.118Z,51.70
2018-04-12T00:38:30.803Z,51.40
2018-04-12T00:39:30.941Z,51.60
2018-04-12T00:40:31.081Z,53.40
2018-04-12T00:41:31.218Z,52.30
2018-04-12T00:42:31.355Z,52.00
2018-04-12T00:43:31.493Z,53.90
2018-04-12T00:44:31.631Z,52.30
2018-04-12T00:45:31.782Z,52.90
2018-04-12T00:46:32.083Z,53.30
2018-04-12T00:47:32.103Z,53.30
2018-04-12T00:48:32.246Z,55.10
2018-04-12T00:49:32.382Z,53.30
2018-04-12T00:50:32.526Z,54.20
2018-04-12T00:51:32.663Z,55.30
2018-04-12T00:52:32.801Z,54.40
2018-04-12T00:53:32.939Z,54.70
2018-04-12T00:54:33.084Z,54.30
2018-04-12T00:55:33.223Z,54.30
2018-04-12T00:56:33.360Z,53.70
2018-04-12T00:57:33.671Z,53.20
2018-04-12T00:58:33.635Z,55.00
2018-04-12T00:59:33.779Z,55.20
2018-04-12T01:00:33.917Z,55.20
2018-04-12T01:01:34.049Z,54.60
2018-04-12T01:02:34.190Z,55.30
2018-04-12T01:03:34.329Z,55.80
2018-04-12T01:04:34.472Z,55.40
2018-04-12T01:05:34.616Z,56.10
2018-04-12T01:06:34.751Z,55.70
2018-04-12T01:07:34.897Z,55.70
2018-04-12T01:08:35.034Z,54.80
2018-04-12T01:09:35.178Z,57.10
2018-04-12T01:10:35.316Z,57.30
2018-04-12T01:11:35.451Z,56.00
2018-04-12T01:12:35.597Z,58.70
2018-04-12T01:13:35.732Z,57.30
2018-04-12T01:14:35.865Z,56.10
2018-04-12T01:15:36.013Z,56.20
2018-04-12T01:16:36.152Z,57.20
2018-04-12T01:17:36.285Z,57.40
2018-04-12T01:18:36.429Z,56.70
2018-04-12T01:19:36.569Z,59.00
2018-04-12T01:20:36.713Z,58.00
2018-04-12T01:21:36.850Z,57.90
2018-04-12T01:22:36.989Z,56.90
2018-04-12T01:23:37.125Z,59.70
2018-04-12T01:24:37.265Z,58.40
2018-04-12T01:25:37.401Z,58.70
2018-04-12T01:26:37.542Z,58.70
2018-04-12T01:27:37.685Z,59.90
2018-04-12T01:28:37.822Z,58.70
2018-04-12T01:29:37.977Z,59.00
2018-04-12T01:30:38.127Z,58.90
2018-04-12T01:31:38.255Z,57.50
2018-04-12T01:32:38.395Z,59.60
2018-04-12T01:33:38.529Z,60.30
2018-04-12T01:34:38.668Z,58.90
2018-04-12T01:35:38.810Z,58.00
2018-04-12T01:36:38.944Z,58.30
2018-04-12T01:37:39.084Z,58.00
2018-04-12T01:38:39.224Z,59.10
2018-04-12T01:39:39.369Z,57.40
2018-04-12T01:40:39.497Z,58.70
2018-04-12T01:41:39.634Z,58.60
2018-04-12T01:42:39.774Z,57.90
2018-04-12T01:43:39.912Z,57.20
2018-04-12T01:44:40.052Z,58.00
2018-04-12T01:45:40.180Z,57.30
2018-04-12T01:46:40.320Z,58.80
2018-04-12T01:47:40.453Z,58.30
2018-04-12T01:48:40.592Z,58.40
2018-04-12T01:49:40.731Z,59.50
2018-04-12T01:50:40.873Z,58.90
2018-04-12T01:51:41.024Z,59.30
2018-04-12T01:52:41.152Z,57.90
2018-04-12T01:53:41.291Z,58.50
2018-04-12T01:54:41.429Z,59.20
2018-04-12T01:55:41.567Z,58.60
2018-04-12T01:56:41.710Z,59.20
2018-04-12T01:57:41.850Z,60.10
2018-04-12T01:58:41.990Z,58.90
2018-04-12T01:59:42.130Z,59.00
2018-04-12T02:00:42.272Z,59.30
2018-04-12T02:01:42.411Z,59.80
2018-04-12T02:02:42.548Z,60.20
2018-04-12T02:03:42.684Z,59.50
2018-04-12T02:04:42.821Z,59.80
2018-04-12T02:05:42.964Z,59.80
2018-04-12T02:06:43.106Z,59.70
2018-04-12T02:07:43.237Z,59.30
2018-04-12T02:08:43.380Z,60.10
2018-04-12T02:09:43.516Z,60.20
2018-04-12T02:10:43.671Z,59.10
2018-04-12T02:11:43.826Z,58.30
2018-04-12T02:12:43.964Z,59.40
2018-04-12T02:13:44.110Z,59.50
2018-04-12T02:14:44.249Z,60.30
2018-04-12T02:15:44.395Z,62.00
2018-04-12T02:16:44.540Z,60.30
2018-04-12T02:17:44.683Z,61.80
2018-04-12T02:18:44.828Z,60.20
2018-04-12T02:19:44.968Z,60.60
2018-04-12T02:20:45.100Z,60.00
2018-04-12T02:21:45.235Z,59.70
2018-04-12T02:22:45.429Z,60.50
2018-04-12T02:23:45.562Z,61.00
2018-04-12T02:24:45.703Z,61.60
2018-04-12T02:25:45.915Z,59.70
2018-04-12T02:26:45.930Z,62.30
2018-04-12T02:27:46.075Z,61.20
2018-04-12T02:28:46.216Z,60.70
2018-04-12T02:29:46.351Z,60.00
2018-04-12T02:30:46.489Z,61.10
2018-04-12T02:31:46.625Z,60.50
2018-04-12T02:32:46.769Z,61.00
2018-04-12T02:33:46.915Z,62.20
2018-04-12T02:34:47.041Z,60.60
2018-04-12T02:35:47.183Z,61.10
2018-04-12T02:36:47.319Z,61.50
2018-04-12T02:37:47.468Z,59.80
2018-04-12T02:38:47.599Z,59.60
2018-04-12T02:39:47.739Z,61.00
2018-04-12T02:40:47.876Z,62.30
2018-04-12T02:41:48.015Z,61.40
2018-04-12T02:42:48.158Z,60.50
2018-04-12T02:43:48.293Z,60.10
2018-04-12T02:44:48.443Z,59.90
2018-04-12T02:45:48.574Z,60.30
2018-04-12T02:46:48.710Z,61.30
2018-04-12T02:47:48.864Z,61.20
2018-04-12T02:48:48.998Z,62.10
2018-04-12T02:49:49.143Z,62.10
2018-04-12T02:50:49.279Z,60.60
2018-04-12T02:51:49.416Z,61.10
2018-04-12T02:52:49.558Z,62.50
2018-04-12T02:53:49.696Z,62.10
2018-04-12T02:54:49.881Z,61.60
2018-04-12T02:55:50.016Z,62.80
2018-04-12T02:56:50.159Z,63.40
2018-04-12T02:57:50.300Z,63.00
2018-04-12T02:58:50.435Z,62.70
2018-04-12T02:59:50.584Z,62.30
2018-04-12T03:00:50.720Z,63.00
2018-04-12T03:01:50.864Z,62.80
2018-04-12T03:02:51.002Z,65.90
2018-04-12T03:03:51.144Z,65.70
2018-04-12T03:04:51.278Z,64.60
2018-04-12T03:05:51.420Z,64.80
2018-04-12T03:06:51.581Z,63.60
2018-04-12T03:07:51.705Z,63.90
2018-04-12T03:08:51.844Z,64.10
2018-04-12T03:09:51.986Z,63.80
2018-04-12T03:10:52.125Z,64.40
2018-04-12T03:11:52.262Z,64.90
2018-04-12T03:12:52.406Z,66.00
2018-04-12T03:13:52.548Z,66.10
2018-04-12T03:14:52.681Z,63.70
2018-04-12T03:15:52.819Z,64.90
2018-04-12T03:16:52.963Z,66.30
2018-04-12T03:17:53.101Z,64.40
2018-04-12T03:18:53.242Z,64.80
2018-04-12T03:19:53.380Z,63.70
2018-04-12T03:20:53.532Z,64.70
2018-04-12T03:21:53.663Z,66.10
2018-04-12T03:22:53.810Z,64.30
2018-04-12T03:23:53.944Z,63.00
2018-04-12T03:24:54.081Z,64.20
2018-04-12T03:25:54.223Z,65.90
2018-04-12T03:26:54.366Z,66.00
2018-04-12T03:27:54.501Z,65.90
2018-04-12T03:28:54.639Z,64.80
2018-04-12T03:29:54.813Z,63.70
2018-04-12T03:30:54.912Z,63.90
2018-04-12T03:31:55.061Z,65.00
2018-04-12T03:32:55.184Z,65.30
2018-04-12T03:33:55.327Z,65.00
2018-04-12T03:34:55.470Z,64.20
2018-04-12T03:35:55.606Z,65.80
2018-04-12T03:36:55.746Z,63.90
2018-04-12T03:37:55.891Z,64.00
2018-04-12T03:38:56.033Z,64.40
2018-04-12T03:39:56.163Z,64.20
2018-04-12T03:40:56.306Z,66.70
2018-04-12T03:41:56.438Z,67.10
2018-04-12T03:42:56.580Z,66.00
2018-04-12T03:43:56.716Z,65.50
2018-04-12T03:44:56.859Z,67.60
2018-04-12T03:45:56.995Z,65.90
2018-04-12T03:46:57.132Z,66.20
2018-04-12T03:47:57.268Z,66.70
2018-04-12T03:48:57.409Z,66.00
2018-04-12T03:49:57.548Z,66.30
2018-04-12T03:50:58.202Z,65.90
2018-04-12T03:51:57.868Z,65.40
2018-04-12T03:52:58.008Z,66.70
2018-04-12T03:53:58.184Z,64.00
2018-04-12T03:54:58.358Z,64.60
2018-04-12T03:55:58.486Z,65.20
2018-04-12T03:56:58.623Z,65.50
2018-04-12T03:57:58.759Z,65.40
2018-04-12T03:58:58.904Z,65.20
2018-04-12T03:59:59.044Z,65.80
2018-04-12T04:00:59.181Z,65.70
2018-04-12T04:01:59.317Z,66.20
2018-04-12T04:02:59.464Z,66.10
2018-04-12T04:03:59.609Z,66.70
2018-04-12T04:04:59.741Z,65.50
2018-04-12T04:05:59.881Z,66.70
2018-04-12T04:07:00.035Z,64.90
2018-04-12T04:08:00.159Z,66.10
2018-04-12T04:09:00.302Z,65.20
2018-04-12T04:10:00.441Z,64.60
2018-04-12T04:11:00.574Z,66.40
2018-04-12T04:12:00.714Z,63.70
2018-04-12T04:13:00.854Z,65.30
2018-04-12T04:14:00.991Z,65.70
2018-04-12T04:15:01.132Z,66.60
2018-04-12T04:16:01.278Z,64.30
2018-04-12T04:17:01.421Z,65.50
2018-04-12T04:18:01.564Z,67.40
2018-04-12T04:19:01.705Z,66.00
2018-04-12T04:20:01.848Z,66.20
2018-04-12T04:21:02.001Z,66.90
2018-04-12T04:22:02.135Z,66.00
2018-04-12T04:23:02.274Z,68.40
2018-04-12T04:24:02.406Z,65.80
2018-04-12T04:25:02.543Z,64.70
2018-04-12T04:26:02.677Z,64.70
2018-04-12T04:27:03.705Z,65.10
2018-04-12T04:28:02.941Z,66.10
2018-04-12T04:29:03.085Z,66.10
2018-04-12T04:30:03.231Z,67.90
2018-04-12T04:31:03.367Z,66.10
2018-04-12T04:32:03.506Z,67.40
2018-04-12T04:33:03.643Z,65.60
2018-04-12T04:34:03.784Z,66.30
2018-04-12T04:35:04.725Z,67.50
2018-04-12T04:36:04.004Z,66.10
2018-04-12T04:37:04.157Z,65.20
2018-04-12T04:38:05.220Z,66.00
2018-04-12T04:39:04.384Z,66.90
2018-04-12T04:40:04.520Z,67.40
2018-04-12T04:41:04.657Z,67.30
2018-04-12T04:42:04.796Z,67.60
2018-04-12T04:43:04.936Z,68.90
2018-04-12T04:44:05.074Z,67.80
2018-04-12T04:45:05.221Z,68.00
2018-04-12T04:46:05.359Z,67.10
2018-04-12T04:47:05.501Z,68.10
2018-04-12T04:48:05.643Z,69.20
2018-04-12T04:49:05.779Z,68.30
2018-04-12T04:50:05.910Z,67.80
2018-04-12T04:51:06.045Z,68.80
2018-04-12T04:52:06.185Z,70.70
2018-04-12T04:53:06.326Z,68.80
2018-04-12T04:54:06.472Z,69.60
2018-04-12T04:55:06.611Z,67.60
2018-04-12T04:56:06.749Z,67.20
2018-04-12T04:57:06.883Z,67.90
2018-04-12T04:58:07.029Z,68.00
2018-04-12T04:59:07.165Z,69.20
2018-04-12T05:00:07.296Z,70.50
2018-04-12T05:01:07.436Z,70.00
2018-04-12T05:02:07.607Z,70.40
2018-04-12T05:03:07.711Z,70.50
2018-04-12T05:04:07.860Z,70.80
2018-04-12T05:05:08.008Z,70.00
2018-04-12T05:06:08.138Z,70.50
2018-04-12T05:07:08.282Z,71.70
2018-04-12T05:08:08.418Z,72.60
2018-04-12T05:09:08.561Z,69.00
2018-04-12T05:10:08.697Z,69.90
2018-04-12T05:11:08.838Z,70.10
2018-04-12T05:12:08.963Z,73.10
2018-04-12T05:13:09.096Z,70.70
2018-04-12T05:14:09.241Z,71.90
2018-04-12T05:15:09.371Z,69.20
2018-04-12T05:16:09.512Z,70.10
2018-04-12T05:17:09.652Z,71.50
2018-04-12T05:18:09.784Z,67.60
2018-04-12T05:19:09.924Z,68.80
2018-04-12T05:20:10.063Z,71.00
2018-04-12T05:21:10.199Z,67.80
2018-04-12T05:22:10.345Z,69.60
2018-04-12T05:23:10.487Z,67.90
2018-04-12T05:24:10.626Z,68.30
2018-04-12T05:25:10.764Z,69.50
2018-04-12T05:26:10.904Z,70.20
2018-04-12T05:27:11.044Z,69.10
2018-04-12T05:28:11.187Z,69.50
2018-04-12T05:29:11.325Z,69.10
2018-04-12T05:30:11.475Z,71.00
2018-04-12T05:31:11.610Z,69.00
2018-04-12T05:32:11.743Z,70.20
2018-04-12T05:33:11.877Z,66.20
2018-04-12T05:34:12.016Z,73.00
2018-04-12T05:35:12.156Z,69.10
2018-04-12T05:36:12.299Z,70.50
2018-04-12T05:37:12.438Z,70.60
2018-04-12T05:38:12.580Z,68.50
2018-04-12T05:39:12.720Z,69.90
2018-04-12T05:40:12.860Z,69.00
2018-04-12T05:41:12.996Z,68.50
2018-04-12T05:42:13.143Z,69.50
2018-04-12T05:43:13.279Z,69.40
2018-04-12T05:44:13.415Z,67.30
2018-04-12T05:45:13.562Z,66.40
2018-04-12T05:46:13.703Z,68.10
2018-04-12T05:47:13.840Z,67.90
2018-04-12T05:48:13.985Z,68.20
2018-04-12T05:49:14.115Z,68.60
2018-04-12T05:50:14.250Z,66.70
2018-04-12T05:51:14.395Z,67.00
2018-04-12T05:52:14.529Z,66.00
2018-04-12T05:53:14.669Z,67.90
2018-04-12T05:54:14.813Z,65.70
2018-04-12T05:55:14.956Z,68.20
2018-04-12T05:56:15.103Z,66.80
2018-04-12T05:57:15.303Z,65.90
2018-04-12T05:58:15.364Z,67.20
2018-04-12T05:59:15.499Z,66.80
2018-04-12T06:00:15.635Z,68.30
2018-04-12T06:01:15.772Z,67.90
2018-04-12T06:02:15.910Z,69.40
2018-04-12T06:03:16.048Z,66.40
2018-04-12T06:04:16.182Z,70.30
2018-04-12T06:05:16.343Z,68.80
2018-04-12T06:06:16.476Z,65.60
2018-04-12T06:07:16.618Z,67.40
2018-04-12T06:08:16.753Z,70.00
2018-04-12T06:09:16.890Z,66.50
2018-04-12T06:10:17.032Z,64.60
2018-04-12T06:11:17.175Z,66.90
2018-04-12T06:12:17.316Z,63.40
2018-04-12T06:13:17.452Z,65.10
2018-04-12T06:14:17.592Z,66.00
2018-04-12T06:15:17.732Z,65.80
2018-04-12T06:16:17.873Z,64.10
2018-04-12T06:17:18.016Z,61.80
2018-04-12T06:18:18.157Z,63.40
2018-04-12T06:19:18.301Z,64.20
2018-04-12T06:20:18.438Z,65.40
2018-04-12T06:21:18.587Z,60.70
2018-04-12T06:22:18.721Z,59.30
2018-04-12T06:23:18.862Z,60.20
2018-04-12T06:24:19.013Z,61.00
2018-04-12T06:25:19.136Z,60.20
2018-04-12T06:26:19.279Z,59.70
2018-04-12T06:27:19.424Z,60.40
2018-04-12T06:28:19.556Z,60.00
2018-04-12T06:29:19.791Z,60.20
2018-04-12T06:30:19.812Z,58.00
2018-04-12T06:31:19.949Z,59.80
2018-04-12T06:32:20.101Z,60.50
2018-04-12T06:33:20.225Z,60.30
2018-04-12T06:34:20.363Z,60.20
2018-04-12T06:35:20.509Z,61.70
2018-04-12T06:36:20.647Z,61.00
2018-04-12T06:37:20.791Z,61.10
2018-04-12T06:38:20.922Z,60.10
2018-04-12T06:39:21.064Z,61.20
2018-04-12T06:40:21.208Z,61.20
2018-04-12T06:41:21.356Z,62.00
2018-04-12T06:42:21.497Z,59.60
2018-04-12T06:43:21.631Z,74.20
2018-04-12T06:44:21.775Z,79.70
2018-04-12T06:45:21.903Z,69.80
2018-04-12T06:46:22.043Z,62.80
2018-04-12T06:47:22.183Z,61.00
2018-04-12T06:48:22.322Z,61.20
2018-04-12T06:49:22.463Z,59.50
2018-04-12T06:50:22.607Z,60.40
2018-04-12T06:51:22.747Z,60.10
2018-04-12T06:52:22.883Z,60.70
2018-04-12T06:53:23.028Z,59.80
2018-04-12T06:54:23.160Z,60.60
2018-04-12T06:55:23.306Z,61.60
2018-04-12T06:56:23.453Z,61.30
2018-04-12T06:57:23.591Z,61.70
2018-04-12T06:58:23.734Z,61.00
2018-04-12T06:59:23.868Z,60.80
2018-04-12T07:00:24.008Z,59.70
2018-04-12T07:01:24.164Z,61.20
2018-04-12T07:02:24.302Z,60.30
2018-04-12T07:03:24.438Z,60.00
2018-04-12T07:04:24.581Z,59.60
2018-04-12T07:05:24.725Z,60.30
2018-04-12T07:06:24.861Z,59.90
2018-04-12T07:07:25.015Z,58.10
2018-04-12T07:08:25.154Z,59.20
2018-04-12T07:09:25.295Z,58.10
2018-04-12T07:10:26.220Z,57.80
2018-04-12T07:11:25.606Z,57.60
2018-04-12T07:12:25.744Z,57.70
2018-04-12T07:13:25.927Z,56.10
2018-04-12T07:14:26.064Z,58.40
2018-04-12T07:15:26.201Z,57.30
2018-04-12T07:16:26.343Z,56.10
2018-04-12T07:17:26.483Z,59.00
2018-04-12T07:18:26.623Z,57.50
2018-04-12T07:19:26.755Z,57.10
2018-04-12T07:20:26.898Z,55.70
2018-04-12T07:21:27.044Z,57.70
2018-04-12T07:22:27.184Z,57.70
2018-04-12T07:23:27.321Z,56.60
2018-04-12T07:24:27.468Z,56.30
2018-04-12T07:25:28.221Z,55.20
2018-04-12T07:26:27.778Z,55.00
2018-04-12T07:27:27.909Z,56.50
2018-04-12T07:28:28.090Z,56.80
2018-04-12T07:29:28.206Z,55.80
2018-04-12T07:30:28.350Z,56.90
2018-04-12T07:31:28.489Z,56.50
2018-04-12T07:32:28.625Z,57.00
2018-04-12T07:33:28.760Z,56.80
2018-04-12T07:34:28.907Z,54.30
2018-04-12T07:35:29.039Z,55.60
2018-04-12T07:36:29.175Z,55.20
2018-04-12T07:37:29.308Z,54.20
2018-04-12T07:38:29.460Z,54.40
2018-04-12T07:39:29.601Z,54.70
2018-04-12T07:40:29.738Z,54.10
2018-04-12T07:41:29.873Z,52.60
2018-04-12T07:42:30.018Z,53.70
2018-04-12T07:43:30.163Z,52.50
2018-04-12T07:44:30.312Z,51.60
2018-04-12T07:45:30.453Z,53.20
2018-04-12T07:46:30.589Z,51.90
2018-04-12T07:47:30.733Z,52.90
2018-04-12T07:48:30.868Z,52.30
2018-04-12T07:49:31.010Z,53.10
2018-04-12T07:50:31.150Z,53.30
2018-04-12T07:51:31.308Z,52.90
2018-04-12T07:52:31.437Z,52.20
2018-04-12T07:53:31.570Z,52.20
2018-04-12T07:54:31.719Z,54.50
2018-04-12T07:55:31.858Z,54.60
2018-04-12T07:56:32.001Z,55.80
2018-04-12T07:57:32.135Z,52.70
2018-04-12T07:58:32.278Z,54.70
2018-04-12T07:59:32.407Z,54.50
2018-04-12T08:00:32.554Z,55.40
2018-04-12T08:01:32.693Z,54.50
2018-04-12T08:02:32.836Z,54.00
2018-04-12T08:03:32.980Z,54.70
2018-04-12T08:04:33.121Z,54.30
2018-04-12T08:05:33.263Z,54.10
2018-04-12T08:06:33.413Z,54.10
2018-04-12T08:07:33.538Z,53.20
2018-04-12T08:08:33.678Z,53.10
2018-04-12T08:09:33.840Z,55.00
2018-04-12T08:10:33.987Z,54.10
2018-04-12T08:11:34.127Z,52.70
2018-04-12T08:12:34.285Z,54.00
2018-04-12T08:13:34.424Z,53.70
2018-04-12T08:14:34.557Z,52.90
2018-04-12T08:15:34.700Z,52.80
2018-04-12T08:16:34.840Z,52.70
2018-04-12T08:17:34.986Z,53.60
2018-04-12T08:18:35.136Z,53.70
2018-04-12T08:19:35.270Z,52.90
2018-04-12T08:20:35.421Z,53.10
2018-04-12T08:21:35.565Z,51.60
2018-04-12T08:22:35.704Z,53.50
2018-04-12T08:23:35.868Z,53.70
2018-04-12T08:24:36.037Z,52.70
2018-04-12T08:25:36.179Z,53.10
2018-04-12T08:26:36.326Z,55.00
2018-04-12T08:27:36.449Z,53.30
2018-04-12T08:28:36.590Z,53.70
2018-04-12T08:29:36.728Z,52.60
2018-04-12T08:30:36.871Z,52.50
2018-04-12T08:31:37.013Z,53.20
2018-04-12T08:32:37.146Z,53.30
2018-04-12T08:33:37.288Z,53.60
2018-04-12T08:34:37.437Z,51.70
2018-04-12T08:35:37.580Z,51.50
2018-04-12T08:36:37.789Z,52.30
2018-04-12T08:37:37.802Z,53.00
2018-04-12T08:38:37.942Z,59.50
2018-04-12T08:39:38.071Z,55.20
2018-04-12T08:40:38.209Z,53.70
2018-04-12T08:41:38.342Z,51.30
2018-04-12T08:42:38.483Z,52.30
2018-04-12T08:43:38.632Z,50.20
2018-04-12T08:44:38.765Z,50.00
2018-04-12T08:45:38.906Z,50.80
2018-04-12T08:46:39.046Z,50.70
2018-04-12T08:47:39.190Z,50.40
2018-04-12T08:48:39.322Z,49.00
2018-04-12T08:49:39.467Z,50.00
2018-04-12T08:50:39.607Z,50.10
2018-04-12T08:51:39.743Z,50.40
2018-04-12T08:52:39.883Z,49.10
2018-04-12T08:53:40.025Z,49.40
2018-04-12T08:54:40.162Z,50.90
2018-04-12T08:55:40.299Z,47.60
2018-04-12T08:56:40.443Z,47.60
2018-04-12T08:57:40.583Z,47.10
2018-04-12T08:58:40.723Z,47.70
2018-04-12T08:59:40.896Z,47.00
2018-04-12T09:00:41.011Z,47.40
2018-04-12T09:01:41.151Z,47.60
2018-04-12T09:02:41.294Z,47.60
2018-04-12T09:03:41.437Z,48.10
2018-04-12T09:04:41.573Z,47.90
2018-04-12T09:05:41.725Z,46.20
2018-04-12T09:06:41.870Z,44.90
2018-04-12T09:07:42.019Z,45.40
2018-04-12T09:08:42.165Z,46.00
2018-04-12T09:09:42.296Z,46.10
2018-04-12T09:10:42.450Z,45.70
2018-04-12T09:11:42.581Z,44.50
2018-04-12T09:12:42.719Z,44.10
2018-04-12T09:13:42.865Z,43.10
2018-04-12T09:14:43.006Z,45.90
2018-04-12T09:15:43.152Z,43.20
2018-04-12T09:16:43.293Z,44.00
2018-04-12T09:17:43.443Z,44.20
2018-04-12T09:18:43.586Z,44.10
2018-04-12T09:19:43.725Z,44.80
2018-04-12T09:20:43.869Z,47.00
2018-04-12T09:21:44.009Z,44.20
2018-04-12T09:22:44.149Z,44.90
2018-04-12T09:23:44.289Z,44.80
2018-04-12T09:24:44.430Z,44.30
2018-04-12T09:25:44.571Z,43.90
2018-04-12T09:26:44.724Z,43.30
2018-04-12T09:27:44.921Z,43.50
2018-04-12T09:28:44.998Z,43.90
2018-04-12T09:29:45.138Z,45.40
2018-04-12T09:30:45.282Z,43.00
2018-04-12T09:31:45.427Z,44.20
2018-04-12T09:32:45.569Z,44.60
2018-04-12T09:33:45.707Z,42.40
2018-04-12T09:34:45.858Z,43.40
2018-04-12T09:35:45.994Z,44.30
2018-04-12T09:36:46.145Z,43.40
2018-04-12T09:37:46.286Z,43.10
2018-04-12T09:38:46.421Z,43.30
2018-04-12T09:39:46.565Z,42.40
2018-04-12T09:40:46.706Z,42.90
2018-04-12T09:41:46.850Z,42.80
2018-04-12T09:42:46.996Z,42.30
2018-04-12T09:43:47.133Z,42.00
2018-04-12T09:44:47.282Z,43.90
2018-04-12T09:45:47.412Z,41.90
2018-04-12T09:46:47.556Z,42.70
2018-04-12T09:47:47.696Z,42.40
2018-04-12T09:48:47.831Z,42.60
2018-04-12T09:49:47.967Z,41.20
2018-04-12T09:50:48.111Z,42.50
2018-04-12T09:51:48.294Z,42.10
2018-04-12T09:52:48.385Z,40.90
2018-04-12T09:53:48.528Z,41.80
2018-04-12T09:54:48.665Z,41.50
2018-04-12T09:55:48.802Z,41.40
2018-04-12T09:56:48.947Z,40.90
2018-04-12T09:57:49.080Z,40.30
2018-04-12T09:58:49.225Z,40.60
2018-04-12T09:59:49.382Z,41.00
2018-04-12T10:00:49.516Z,40.60
2018-04-12T10:01:49.660Z,40.80
2018-04-12T10:02:49.806Z,38.60
2018-04-12T10:03:49.949Z,38.60
2018-04-12T10:04:50.144Z,38.30
2018-04-12T10:05:50.282Z,39.70
2018-04-12T10:06:50.422Z,38.20
2018-04-12T10:07:50.560Z,38.10
2018-04-12T10:08:50.722Z,36.00
2018-04-12T10:09:50.845Z,36.50
2018-04-12T10:10:50.993Z,37.20
2018-04-12T10:11:51.136Z,35.60
2018-04-12T10:12:51.278Z,35.50
2018-04-12T10:13:51.417Z,34.40
2018-04-12T10:14:51.560Z,35.10
2018-04-12T10:15:51.699Z,34.20
2018-04-12T10:16:51.849Z,34.80
2018-04-12T10:17:51.990Z,33.80
2018-04-12T10:18:52.134Z,34.70
2018-04-12T10:19:52.285Z,35.90
2018-04-12T10:20:52.422Z,34.20
2018-04-12T10:21:52.568Z,34.40
2018-04-12T10:22:52.709Z,33.60
2018-04-12T10:23:52.849Z,34.00
2018-04-12T10:24:52.989Z,33.90
2018-04-12T10:25:53.132Z,31.60
2018-04-12T10:26:53.277Z,31.30
2018-04-12T10:27:53.417Z,31.50
2018-04-12T10:28:53.554Z,32.00
2018-04-12T10:29:53.709Z,30.70
2018-04-12T10:30:53.851Z,29.90
2018-04-12T10:31:54.767Z,28.80
2018-04-12T10:32:54.179Z,28.80
2018-04-12T10:33:54.323Z,28.70
2018-04-12T10:34:54.477Z,30.90
2018-04-12T10:35:54.622Z,30.70
2018-04-12T10:36:54.771Z,29.90
2018-04-12T10:37:54.924Z,28.80
2018-04-12T10:38:55.068Z,28.70
2018-04-12T10:39:55.213Z,28.20
2018-04-12T10:40:55.354Z,28.60
2018-04-12T10:41:55.510Z,28.40
2018-04-12T10:42:55.651Z,29.50
2018-04-12T10:43:55.836Z,29.40
2018-04-12T10:44:55.966Z,29.20
2018-04-12T10:45:56.114Z,28.40
2018-04-12T10:46:56.316Z,30.20
2018-04-12T10:47:56.334Z,29.20
2018-04-12T10:48:56.483Z,29.20
2018-04-12T10:49:56.627Z,29.80
2018-04-12T10:50:56.781Z,28.20
2018-04-12T10:51:56.964Z,27.60
2018-04-12T10:52:57.069Z,28.30
2018-04-12T10:53:57.212Z,27.00
2018-04-12T10:54:57.353Z,29.40
2018-04-12T10:55:57.493Z,30.10
2018-04-12T10:56:58.302Z,29.70
2018-04-12T10:57:57.803Z,29.50
2018-04-12T10:58:57.953Z,29.50
2018-04-12T10:59:58.097Z,29.20
2018-04-12T11:00:58.241Z,28.20
2018-04-12T11:01:58.385Z,28.70
2018-04-12T11:02:58.530Z,28.00
2018-04-12T11:03:58.669Z,26.90
2018-04-12T11:04:58.842Z,27.80
2018-04-12T11:05:58.960Z,26.20
2018-04-12T11:06:59.103Z,26.50
2018-04-12T11:07:59.256Z,26.00
2018-04-12T11:08:59.407Z,26.40
2018-04-12T11:09:59.555Z,26.70
2018-04-12T11:10:59.706Z,26.40
2018-04-12T11:11:59.865Z,27.20
2018-04-12T11:13:00.015Z,26.50
2018-04-12T11:14:00.161Z,25.80
2018-04-12T11:15:00.309Z,25.10
2018-04-12T11:16:00.454Z,24.90
2018-04-12T11:17:00.602Z,25.60
2018-04-12T11:18:00.761Z,25.20
2018-04-12T11:19:00.904Z,24.90
2018-04-12T11:20:01.055Z,25.10
2018-04-12T11:21:01.276Z,24.50
2018-04-12T11:22:01.362Z,23.80
2018-04-12T11:23:02.269Z,22.90
2018-04-12T11:24:01.698Z,22.70
2018-04-12T11:25:01.879Z,22.30
2018-04-12T11:26:02.061Z,22.40
2018-04-12T11:27:02.190Z,21.20
2018-04-12T11:28:02.341Z,21.10
2018-04-12T11:29:02.488Z,20.80
2018-04-12T11:30:02.671Z,26.90
2018-04-12T11:31:02.799Z,27.00
2018-04-12T11:32:02.960Z,25.60
2018-04-12T11:33:03.117Z,20.90
2018-04-12T11:34:03.294Z,18.70
2018-04-12T11:35:03.426Z,20.20
2018-04-12T11:36:03.581Z,18.80
2018-04-12T11:37:03.739Z,19.40
2018-04-12T11:38:03.911Z,19.90
2018-04-12T11:39:04.064Z,18.40
2018-04-12T11:40:04.217Z,17.90
2018-04-12T11:41:04.370Z,18.30
2018-04-12T11:42:04.525Z,18.70
2018-04-12T11:43:04.687Z,17.60
2018-04-12T11:44:04.847Z,17.40
2018-04-12T11:45:05.009Z,18.10
2018-04-12T11:46:05.167Z,17.10
2018-04-12T11:47:05.327Z,18.30
2018-04-12T11:48:05.486Z,16.80
2018-04-12T11:49:05.670Z,16.50
2018-04-12T11:50:05.783Z,17.50
2018-04-12T11:51:05.978Z,17.10
2018-04-12T11:52:06.124Z,16.10
2018-04-12T11:53:06.272Z,15.70
2018-04-12T11:54:06.442Z,15.80
2018-04-12T11:55:06.600Z,16.00
2018-04-12T11:56:06.758Z,16.50
2018-04-12T11:57:06.908Z,15.60
2018-04-12T11:58:07.064Z,16.30
2018-04-12T11:59:07.221Z,15.90
2018-04-12T12:00:07.381Z,15.70
2018-04-12T12:01:07.535Z,16.30
2018-04-12T12:02:07.697Z,16.20
2018-04-12T12:03:07.870Z,15.50
2018-04-12T12:04:08.015Z,14.80
2018-04-12T12:05:08.175Z,14.50
2018-04-12T12:06:08.336Z,14.10
2018-04-12T12:07:08.495Z,14.20
2018-04-12T12:08:08.657Z,13.50
2018-04-12T12:09:08.810Z,13.10
2018-04-12T12:10:08.959Z,13.30
2018-04-12T12:11:09.116Z,13.50
2018-04-12T12:12:09.280Z,12.70
2018-04-12T12:13:09.443Z,11.90
2018-04-12T12:14:09.601Z,12.30
2018-04-12T12:15:09.756Z,12.80
2018-04-12T12:16:09.920Z,12.20
2018-04-12T12:17:10.077Z,11.20
2018-04-12T12:18:10.232Z,13.10
2018-04-12T12:19:10.395Z,14.10
2018-04-12T12:20:10.566Z,14.20
2018-04-12T12:21:10.720Z,13.70
2018-04-12T12:22:10.879Z,12.90
2018-04-12T12:23:11.047Z,12.50
2018-04-12T12:24:11.206Z,12.10
2018-04-12T12:25:11.372Z,12.30
2018-04-12T12:26:11.530Z,11.50
2018-04-12T12:27:11.697Z,12.50
2018-04-12T12:28:11.853Z,12.40
2018-04-12T12:29:12.007Z,12.60
2018-04-12T12:30:12.169Z,12.70
2018-04-12T12:31:12.328Z,12.30
2018-04-12T12:32:12.483Z,13.70
2018-04-12T12:33:12.641Z,14.10
2018-04-12T12:34:12.799Z,14.20
2018-04-12T12:35:12.951Z,13.60
2018-04-12T12:36:13.116Z,14.70
2018-04-12T12:37:13.306Z,12.90
2018-04-12T12:38:13.427Z,14.00
2018-04-12T12:39:13.582Z,15.60
2018-04-12T12:40:13.741Z,15.20
2018-04-12T12:41:13.899Z,12.50
2018-04-12T12:42:14.051Z,16.20
2018-04-12T12:43:14.213Z,15.10
2018-04-12T12:44:14.367Z,14.30
2018-04-12T12:45:14.522Z,15.30
2018-04-12T12:46:14.681Z,14.90
2018-04-12T12:47:14.830Z,12.80
2018-04-12T12:48:14.981Z,13.90
2018-04-12T12:49:15.138Z,13.50
2018-04-12T12:50:15.285Z,13.20
2018-04-12T12:51:15.440Z,12.70
2018-04-12T12:52:15.591Z,11.70
2018-04-12T12:53:15.750Z,12.30
2018-04-12T12:54:15.910Z,12.20